Time;durP1;ratioP1;P1;durP2;ratioP2;P2;SDS_P1;SDS_P2;PMS_P1;PMS_P2;Temp;Humidity;BMP_temperature;BMP_pressure;BME280_temperature;BME280_humidity;BME280_pressure;Samples;Min_cycle;Max_cycle;Signal;HPM_P1;HPM_P2
2022/09/14 00:09:29;;;;;;;40.40;19.30;;;18.80;38.30;;;;;;5082323;28;20537;-86
2022/09/14 00:12:11;;;;;;;38.40;18.80;;;18.80;36.20;;;;;;5084678;28;20538;-84
2022/09/14 00:14:53;;;;;;;34.60;19.33;;;18.80;35.30;;;;;;5086965;28;20491;-81
2022/09/14 00:17:23;;;;;;;36.07;19.97;;;18.80;35.70;;;;;;5076504;28;20855;-80
2022/09/14 00:19:49;;;;;;;38.90;18.97;;;18.90;37.30;;;;;;5079022;28;20467;-79
2022/09/14 00:22:15;;;;;;;35.73;18.80;;;18.90;36.30;;;;;;5091912;28;20419;-79
2022/09/14 00:24:53;;;;;;;34.27;19.10;;;18.90;34.60;;;;;;5092109;28;20453;-80
2022/09/14 00:27:35;;;;;;;36.43;18.63;;;18.90;35.70;;;;;;5073861;28;20224;-79
2022/09/14 00:30:33;;;;;;;46.63;19.40;;;18.80;32.30;;;;;;5087476;28;20387;-85
2022/09/14 00:32:58;;;;;;;32.10;19.53;;;18.80;39.00;;;;;;5090247;28;20933;-85
2022/09/14 00:38:47;;;;;;;33.77;17.97;;;18.80;34.90;;;;;;5083889;28;20301;-85
2022/09/14 00:41:36;;;;;;;31.37;18.50;;;18.90;32.10;;;;;;5072888;28;20463;-86
2022/09/14 00:44:23;;;;;;;31.00;17.87;;;18.90;31.70;;;;;;5073165;28;20411;-85
2022/09/14 00:46:52;;;;;;;43.10;19.30;;;18.80;31.90;;;;;;5083298;28;20424;-85
2022/09/14 00:50:05;;;;;;;33.90;18.67;;;18.80;33.70;;;;;;5078715;28;20409;-85
2022/09/14 00:53:11;;;;;;;36.53;18.63;;;18.80;35.10;;;;;;5086988;28;20501;-85
2022/09/14 00:59:04;;;;;;;32.97;17.57;;;18.80;37.70;;;;;;5085949;28;20470;-85
2022/09/14 01:01:36;;;;;;;30.23;17.63;;;18.90;33.60;;;;;;5095035;28;20411;-80
2022/09/14 01:04:11;;;;;;;34.30;18.70;;;18.90;32.90;;;;;;5086830;28;20397;-80
2022/09/14 01:07:17;;;;;;;33.27;17.37;;;18.90;31.60;;;;;;5093046;28;20800;-79
2022/09/14 01:10:00;;;;;;;35.10;17.40;;;18.90;31.50;;;;;;5079839;28;20426;-80
2022/09/14 01:13:13;;;;;;;35.77;17.63;;;18.90;29.10;;;;;;5085343;28;20455;-80
2022/09/14 01:19:09;;;;;;;29.97;17.00;;;18.90;32.30;;;;;;5085607;28;20498;-85
2022/09/14 01:22:31;;;;;;;29.57;16.40;;;18.90;28.40;;;;;;5079891;28;20402;-85
2022/09/14 01:25:27;;;;;;;49.07;17.47;;;18.90;30.30;;;;;;5077785;28;20480;-86
2022/09/14 01:28:41;;;;;;;38.87;17.40;;;18.90;28.00;;;;;;5083145;28;20507;-85
2022/09/14 01:31:18;;;;;;;30.63;15.80;;;18.90;29.00;;;;;;5077747;28;20432;-80
2022/09/14 01:34:22;;;;;;;30.20;17.00;;;18.90;27.80;;;;;;5076952;28;20465;-80
2022/09/14 01:37:14;;;;;;;28.97;16.50;;;18.90;27.30;;;;;;4995422;28;20469;-79
2022/09/14 01:40:26;;;;;;;34.47;16.20;;;18.90;28.80;;;;;;5002690;28;20468;-80
2022/09/14 01:43:32;;;;;;;29.50;15.37;;;18.90;28.90;;;;;;4956316;29;20407;-79
2022/09/14 01:46:12;;;;;;;32.43;16.33;;;18.90;30.20;;;;;;4884886;29;20774;-81
2022/09/14 01:49:16;;;;;;;31.00;16.50;;;18.90;29.80;;;;;;4899262;29;20391;-81
2022/09/14 01:51:55;;;;;;;29.97;15.33;;;18.90;33.60;;;;;;4880555;29;20979;-80
2022/09/14 01:54:57;;;;;;;27.80;15.00;;;18.90;31.40;;;;;;4880413;29;20451;-79
2022/09/14 01:57:32;;;;;;;22.67;14.37;;;18.90;30.80;;;;;;4809694;29;20508;-80
2022/09/14 02:00:20;;;;;;;34.27;14.80;;;18.90;29.50;;;;;;4822045;29;20440;-80
2022/09/14 02:03:05;;;;;;;28.10;15.37;;;18.90;27.30;;;;;;4825252;29;20420;-80
2022/09/14 02:05:49;;;;;;;27.93;15.03;;;18.90;27.40;;;;;;4824728;29;20973;-79
2022/09/14 02:08:15;;;;;;;30.37;14.67;;;18.90;27.10;;;;;;4823901;29;20396;-79
2022/09/14 02:10:54;;;;;;;22.43;14.40;;;18.90;26.80;;;;;;4806618;29;20441;-79
2022/09/14 02:13:29;;;;;;;22.63;13.10;;;18.90;25.20;;;;;;4842990;29;20432;-79
2022/09/14 02:22:54;;;;;;;21.67;13.53;;;18.80;26.00;;;;;;4974219;28;20415;-85
2022/09/14 02:29:05;;;;;;;27.90;13.50;;;18.80;27.10;;;;;;5030097;28;20392;-86
2022/09/14 02:32:04;;;;;;;29.17;13.77;;;18.80;26.50;;;;;;5034529;28;21015;-80
2022/09/14 02:34:56;;;;;;;24.37;14.17;;;18.80;26.40;;;;;;5004768;28;20965;-80
2022/09/14 02:38:00;;;;;;;21.50;13.37;;;18.80;26.80;;;;;;5018339;28;20460;-80
2022/09/14 02:40:35;;;;;;;30.10;13.00;;;18.80;26.00;;;;;;5030066;28;20559;-80
2022/09/14 02:43:25;;;;;;;24.20;13.20;;;18.90;24.70;;;;;;5033717;28;20372;-81
2022/09/14 02:46:12;;;;;;;25.20;14.03;;;18.90;24.50;;;;;;5021321;28;20410;-80
2022/09/14 02:48:59;;;;;;;20.77;12.50;;;18.90;25.20;;;;;;5030341;28;20969;-79
2022/09/14 02:52:01;;;;;;;23.40;13.43;;;18.80;26.20;;;;;;5020415;28;20418;-79
2022/09/14 02:54:39;;;;;;;30.03;14.90;;;18.80;27.20;;;;;;5013268;28;20495;-80
2022/09/14 02:57:05;;;;;;;21.07;13.90;;;18.80;27.70;;;;;;5013698;28;20425;-79
2022/09/14 02:59:31;;;;;;;26.50;13.20;;;18.80;27.60;;;;;;5025985;28;20429;-79
2022/09/14 03:12:02;;;;;;;27.27;13.00;;;18.80;26.50;;;;;;5063290;28;20379;-86
2022/09/14 03:17:50;;;;;;;20.77;11.70;;;18.80;28.60;;;;;;5092409;28;20411;-86
2022/09/14 03:20:27;;;;;;;21.60;12.90;;;18.80;27.30;;;;;;5088977;28;20481;-86
2022/09/14 03:23:29;;;;;;;21.10;12.77;;;18.80;29.00;;;;;;5077003;28;20436;-85
2022/09/14 03:26:15;;;;;;;32.40;15.20;;;18.80;30.10;;;;;;5074655;28;20439;-86
2022/09/14 03:32:03;;;;;;;22.47;12.73;;;18.80;30.80;;;;;;5089436;28;20397;-80
2022/09/14 03:34:28;;;;;;;24.70;13.60;;;18.90;28.10;;;;;;5087701;28;20849;-80
2022/09/14 03:36:59;;;;;;;27.87;14.07;;;18.80;28.40;;;;;;5074248;28;20186;-80
2022/09/14 03:39:36;;;;;;;25.77;12.13;;;18.80;30.00;;;;;;5079067;28;20208;-80
2022/09/14 03:42:11;;;;;;;19.10;12.60;;;18.90;32.50;;;;;;5077258;28;21218;-80
2022/09/14 03:44:42;;;;;;;22.70;13.00;;;18.90;28.10;;;;;;5083489;28;20391;-80
2022/09/14 03:50:53;;;;;;;23.60;12.73;;;18.90;26.60;;;;;;5088966;28;20396;-86
2022/09/14 03:53:42;;;;;;;40.20;14.27;;;18.90;27.10;;;;;;5091056;28;20434;-86
2022/09/14 03:56:47;;;;;;;19.00;11.90;;;18.80;28.40;;;;;;5095468;28;20747;-86
2022/09/14 03:59:29;;;;;;;22.73;11.77;;;18.90;28.50;;;;;;5093773;28;20472;-86
2022/09/14 04:02:17;;;;;;;35.40;12.37;;;18.80;28.10;;;;;;5074231;28;20805;-81
2022/09/14 04:04:43;;;;;;;27.20;13.10;;;18.80;28.70;;;;;;5074000;28;20450;-79
2022/09/14 04:07:17;;;;;;;21.63;12.30;;;18.80;27.50;;;;;;5083110;28;20431;-80
2022/09/14 04:09:53;;;;;;;22.67;12.70;;;18.80;26.30;;;;;;5091191;28;20584;-79
2022/09/14 04:12:34;;;;;;;29.83;13.60;;;18.90;26.00;;;;;;5082081;28;20915;-80
2022/09/14 04:15:11;;;;;;;31.97;11.77;;;18.80;26.70;;;;;;5079672;28;20833;-80
2022/09/14 04:18:17;;;;;;;32.73;11.07;;;18.90;27.60;;;;;;5080546;28;20758;-80
2022/09/14 04:20:54;;;;;;;19.67;10.83;;;18.90;27.80;;;;;;5092382;28;20407;-79
2022/09/14 04:23:19;;;;;;;14.63;10.13;;;18.90;30.30;;;;;;5083015;28;20378;-75
2022/09/14 04:25:47;;;;;;;23.83;11.27;;;18.80;26.60;;;;;;5084368;28;20437;-76
2022/09/14 04:28:13;;;;;;;18.83;11.93;;;18.80;27.40;;;;;;5080330;28;20189;-75
2022/09/14 04:30:39;;;;;;;23.37;10.90;;;18.80;26.60;;;;;;5081434;28;20458;-75
2022/09/14 04:33:04;;;;;;;17.30;10.73;;;18.90;28.20;;;;;;5074021;28;20194;-76
2022/09/14 04:35:30;;;;;;;22.97;11.03;;;18.80;27.70;;;;;;5082108;28;20176;-76
2022/09/14 04:38:35;;;;;;;16.87;11.33;;;18.80;26.80;;;;;;5090983;28;20246;-75
2022/09/14 04:41:05;;;;;;;17.20;10.60;;;18.80;28.00;;;;;;5087302;28;20185;-76
2022/09/14 04:44:11;;;;;;;16.67;11.00;;;18.80;27.70;;;;;;5073890;28;20409;-75
2022/09/14 04:46:41;;;;;;;18.33;10.10;;;18.80;28.60;;;;;;5089550;28;20406;-76
2022/09/14 04:49:08;;;;;;;18.13;10.73;;;18.80;28.70;;;;;;5087512;28;20460;-78
2022/09/14 04:52:05;;;;;;;20.20;10.30;;;18.80;29.10;;;;;;5073418;28;20401;-78
2022/09/14 04:54:31;;;;;;;18.30;11.07;;;18.80;30.00;;;;;;5073503;28;20423;-79
2022/09/14 04:56:59;;;;;;;24.10;11.30;;;18.80;27.30;;;;;;5076043;28;20424;-79
2022/09/14 04:59:59;;;;;;;18.03;10.47;;;18.80;26.80;;;;;;5083614;28;20293;-79
2022/09/14 05:02:25;;;;;;;24.23;10.47;;;18.80;26.50;;;;;;5080983;28;20460;-76
2022/09/14 05:04:51;;;;;;;16.43;10.47;;;18.80;26.70;;;;;;5093249;28;20420;-76
2022/09/14 05:07:17;;;;;;;18.63;9.93;;;18.80;28.10;;;;;;5092555;28;20462;-76
2022/09/14 05:09:53;;;;;;;18.13;10.23;;;18.80;27.10;;;;;;5093798;28;20173;-76
2022/09/14 05:12:29;;;;;;;19.83;11.00;;;18.80;27.00;;;;;;5093888;28;20422;-76
2022/09/14 05:15:06;;;;;;;19.13;10.80;;;18.80;27.20;;;;;;5079714;28;20534;-76
2022/09/14 05:17:35;;;;;;;16.17;10.23;;;18.80;28.20;;;;;;5082128;28;20506;-78
2022/09/14 05:20:11;;;;;;;16.20;10.63;;;18.90;24.00;;;;;;5082924;28;20472;-78
2022/09/14 05:22:50;;;;;;;17.97;10.90;;;18.80;25.20;;;;;;5072061;28;20932;-79
2022/09/14 05:25:16;;;;;;;20.90;11.10;;;18.80;26.70;;;;;;5088220;28;20501;-78
2022/09/14 05:27:42;;;;;;;23.30;10.90;;;18.80;26.70;;;;;;5073010;28;20460;-79
2022/09/14 05:30:29;;;;;;;17.40;10.70;;;18.90;30.10;;;;;;5080714;28;20482;-78
2022/09/14 05:32:55;;;;;;;21.13;10.30;;;18.80;26.00;;;;;;5078797;28;20233;-79
2022/09/14 05:35:35;;;;;;;19.27;10.50;;;18.90;24.80;;;;;;5085160;28;20523;-80
2022/09/14 05:38:23;;;;;;;18.20;10.33;;;18.80;25.00;;;;;;5071588;28;20641;-79
2022/09/14 05:40:53;;;;;;;17.57;10.27;;;18.90;25.70;;;;;;5086538;28;20415;-79
2022/09/14 05:43:21;;;;;;;14.87;10.40;;;18.90;26.20;;;;;;5085000;28;20805;-79
2022/09/14 05:45:48;;;;;;;16.50;9.77;;;18.90;26.20;;;;;;5096808;28;20872;-79
2022/09/14 05:48:23;;;;;;;15.70;10.27;;;18.90;24.10;;;;;;5084617;28;20469;-80
2022/09/14 05:51:01;;;;;;;24.27;10.97;;;18.90;23.70;;;;;;5088045;28;20481;-78
2022/09/14 05:53:30;;;;;;;41.03;11.57;;;18.90;24.20;;;;;;5088373;28;20419;-77
2022/09/14 05:56:08;;;;;;;16.77;11.40;;;19.00;23.80;;;;;;5076396;28;20407;-77
2022/09/14 05:58:37;;;;;;;14.73;9.87;;;19.00;22.30;;;;;;5081832;28;20433;-77
2022/09/14 06:01:23;;;;;;;17.40;10.30;;;19.00;22.00;;;;;;5076214;28;20411;-77
2022/09/14 06:04:17;;;;;;;17.20;10.10;;;19.00;22.80;;;;;;5080549;28;20412;-84
2022/09/14 06:10:05;;;;;;;32.33;11.10;;;19.00;21.90;;;;;;5089971;28;20450;-84
2022/09/14 06:16:14;;;;;;;23.03;10.07;;;19.10;22.10;;;;;;5082452;28;20473;-85
2022/09/14 06:18:56;;;;;;;18.13;10.47;;;19.10;20.60;;;;;;5076962;28;20470;-85
2022/09/14 06:21:47;;;;;;;17.17;9.63;;;19.00;21.60;;;;;;5076534;28;20420;-85
2022/09/14 06:24:17;;;;;;;17.60;10.20;;;19.10;22.30;;;;;;5075394;28;20408;-85
2022/09/14 06:26:59;;;;;;;18.20;10.70;;;19.10;22.30;;;;;;5088396;28;20442;-85
2022/09/14 06:29:29;;;;;;;20.73;10.40;;;19.10;23.00;;;;;;5076963;28;20424;-85
2022/09/14 06:32:00;;;;;;;15.63;10.20;;;19.20;22.20;;;;;;5075390;28;20407;-85
2022/09/14 06:34:25;;;;;;;14.20;9.03;;;19.20;17.90;;;;;;5076454;28;20436;-79
2022/09/14 06:36:51;;;;;;;11.90;9.00;;;19.30;14.20;;;;;;5074457;28;20399;-79
2022/09/14 06:39:17;;;;;;;20.70;9.60;;;19.30;14.20;;;;;;5079842;28;20232;-79
2022/09/14 06:41:59;;;;;;;14.60;8.43;;;19.30;14.30;;;;;;5084200;28;20579;-79
2022/09/14 06:44:35;;;;;;;16.70;8.70;;;19.40;15.30;;;;;;5082682;28;20477;-79
2022/09/14 06:47:41;;;;;;;22.40;9.27;;;19.50;14.10;;;;;;5081876;28;20465;-79
2022/09/14 06:50:24;;;;;;;12.57;7.93;;;19.50;11.00;;;;;;5087771;28;20402;-85
2022/09/14 06:52:49;;;;;;;11.60;8.30;;;19.60;10.60;;;;;;5078608;28;20404;-85
2022/09/14 06:55:43;;;;;;;13.57;8.20;;;19.60;6.00;;;;;;5074248;28;20421;-85
2022/09/14 07:01:48;;;;;;;16.00;8.43;;;19.50;5.10;;;;;;5082613;28;20374;-85
2022/09/14 07:04:29;;;;;;;8.97;8.00;;;19.60;5.90;;;;;;5075840;28;20444;-79
2022/09/14 07:06:59;;;;;;;13.37;7.60;;;19.60;5.40;;;;;;5085226;28;20409;-79
2022/09/14 07:09:35;;;;;;;11.80;7.63;;;19.60;4.40;;;;;;5082181;28;20386;-79
2022/09/14 07:12:06;;;;;;;15.30;8.27;;;19.70;4.70;;;;;;5080908;28;20877;-79
2022/09/14 07:14:47;;;;;;;10.07;7.77;;;19.70;3.90;;;;;;5082308;28;20424;-79
2022/09/14 07:17:30;;;;;;;8.00;6.93;;;19.80;6.70;;;;;;5075027;28;20414;-80
2022/09/14 07:20:29;;;;;;;9.73;7.10;;;19.90;1.10;;;;;;5093913;28;20962;-85
2022/09/14 07:22:55;;;;;;;12.90;7.17;;;20.00;1.00;;;;;;5074285;28;20438;-85
2022/09/14 07:25:29;;;;;;;13.87;7.53;;;20.00;1.00;;;;;;5076429;28;20411;-85
2022/09/14 07:28:35;;;;;;;11.43;7.07;;;20.10;1.00;;;;;;5094206;28;20230;-85
2022/09/14 07:31:21;;;;;;;10.83;7.37;;;20.30;1.00;;;;;;5073957;28;20431;-85
2022/09/14 07:33:55;;;;;;;9.60;7.00;;;20.40;1.00;;;;;;5083424;28;20398;-84
2022/09/14 07:40:11;;;;;;;11.73;6.63;;;20.60;1.00;;;;;;5081954;28;20466;-84
2022/09/14 07:42:37;;;;;;;8.07;6.03;;;20.70;1.00;;;;;;5084564;28;20409;-78
2022/09/14 07:45:06;;;;;;;7.97;5.87;;;20.70;1.00;;;;;;5089194;28;20467;-85
2022/09/14 07:47:36;;;;;;;8.60;6.40;;;20.80;1.00;;;;;;5087797;28;20522;-81
2022/09/14 07:50:41;;;;;;;7.00;5.73;;;20.90;1.00;;;;;;5074663;28;20445;-85
2022/09/14 07:53:47;;;;;;;7.07;5.30;;;20.90;1.00;;;;;;5084445;28;20432;-84
2022/09/14 07:56:59;;;;;;;7.57;5.47;;;20.90;1.00;;;;;;5075226;28;20425;-84
2022/09/14 08:03:11;;;;;;;10.67;5.80;;;21.10;1.00;;;;;;5074209;28;21042;-85
2022/09/14 08:05:37;;;;;;;7.63;5.37;;;21.10;1.00;;;;;;5079675;28;20513;-83
2022/09/14 08:08:41;;;;;;;8.73;5.20;;;21.00;1.00;;;;;;5094001;28;20437;-87
2022/09/14 08:11:12;;;;;;;7.07;4.60;;;21.10;1.00;;;;;;5091727;28;20300;-86
2022/09/14 08:13:50;;;;;;;7.30;5.10;;;21.20;1.00;;;;;;5083339;28;20405;-86
2022/09/14 08:16:33;;;;;;;6.83;4.73;;;21.20;1.00;;;;;;5093079;28;20416;-86
2022/09/14 08:19:19;;;;;;;15.80;4.63;;;21.20;1.00;;;;;;5088816;28;20509;-86
2022/09/14 08:22:11;;;;;;;7.93;4.77;;;21.30;1.00;;;;;;5081964;28;20434;-86
2022/09/14 08:25:17;;;;;;;5.93;4.37;;;21.40;1.00;;;;;;5091304;28;20882;-86
2022/09/14 08:31:44;;;;;;;5.77;4.23;;;21.70;1.00;;;;;;5080211;28;20434;-87
2022/09/14 08:34:35;;;;;;;7.57;3.87;;;21.70;1.00;;;;;;5087142;28;20435;-86
2022/09/14 08:40:49;;;;;;;4.17;3.10;;;21.80;1.00;;;;;;5093740;28;20422;-86
2022/09/14 08:43:31;;;;;;;6.13;3.60;;;21.80;1.00;;;;;;5094046;28;20448;-84
2022/09/14 08:49:39;;;;;;;5.03;4.27;;;21.80;1.00;;;;;;5079815;28;20400;-80
2022/09/14 08:52:29;;;;;;;5.17;3.70;;;21.80;1.00;;;;;;5072034;28;20438;-75
2022/09/14 08:55:26;;;;;;;4.30;3.90;;;21.80;1.00;;;;;;5049021;28;20871;-75
2022/09/14 08:58:13;;;;;;;7.50;4.33;;;21.80;1.00;;;;;;4991644;28;20462;-75
2022/09/14 09:00:54;;;;;;;8.50;4.30;;;21.80;1.00;;;;;;4991675;28;20533;-75
2022/09/14 09:03:52;;;;;;;5.37;4.37;;;21.90;1.00;;;;;;4998838;28;20491;-75
2022/09/14 09:06:41;;;;;;;4.93;3.90;;;22.00;1.00;;;;;;4952679;29;20483;-79
2022/09/14 09:09:39;;;;;;;5.80;3.40;;;22.10;1.00;;;;;;4953066;29;20408;-79
2022/09/14 09:12:35;;;;;;;6.77;3.40;;;22.30;1.00;;;;;;4948675;29;20804;-79
2022/09/14 09:15:26;;;;;;;5.00;3.63;;;22.10;1.00;;;;;;4924178;29;20491;-79
2022/09/14 09:18:12;;;;;;;13.40;4.40;;;21.90;1.00;;;;;;4916435;29;20447;-79
2022/09/14 09:20:50;;;;;;;5.50;3.17;;;21.80;1.00;;;;;;4926968;29;20888;-76
2022/09/14 09:23:21;;;;;;;5.40;3.57;;;21.70;1.00;;;;;;4925240;29;20444;-76
2022/09/14 09:26:12;;;;;;;4.10;3.80;;;21.60;1.00;;;;;;4918847;29;20420;-76
2022/09/14 09:28:48;;;;;;;6.63;3.80;;;21.60;1.00;;;;;;4924718;29;20503;-75
2022/09/14 09:31:15;;;;;;;7.53;3.60;;;21.90;1.00;;;;;;4920616;29;20450;-76
2022/09/14 09:33:49;;;;;;;5.50;3.93;;;22.20;1.00;;;;;;4932547;28;20470;-76
2022/09/14 09:36:24;;;;;;;4.47;4.00;;;22.40;1.00;;;;;;4977037;28;20568;-78
2022/09/14 09:39:29;;;;;;;5.10;3.90;;;22.40;1.00;;;;;;4985486;28;20474;-78
2022/09/14 09:42:12;;;;;;;6.77;4.40;;;22.40;1.00;;;;;;4967660;28;20448;-79
2022/09/14 09:45:17;;;;;;;8.20;4.50;;;22.40;1.00;;;;;;5049527;28;20440;-83
2022/09/14 09:47:54;;;;;;;5.40;4.03;;;22.40;1.00;;;;;;5055039;28;20487;-83
2022/09/14 09:50:23;;;;;;;9.90;4.87;;;22.50;1.00;;;;;;5049017;28;20417;-73
2022/09/14 09:52:57;;;;;;;7.33;4.90;;;22.60;1.00;;;;;;5082032;28;20417;-73
2022/09/14 09:55:28;;;;;;;5.40;4.90;;;22.60;1.00;;;;;;5083349;28;20455;-72
2022/09/14 09:57:54;;;;;;;5.20;3.97;;;22.90;1.00;;;;;;5088538;28;20896;-73
2022/09/14 10:00:26;;;;;;;11.40;4.40;;;22.90;1.00;;;;;;5087777;28;20430;-72
2022/09/14 10:02:55;;;;;;;7.10;4.30;;;23.10;1.00;;;;;;5081159;28;20386;-72
2022/09/14 10:05:24;;;;;;;10.70;4.03;;;23.10;1.00;;;;;;5084120;28;20479;-76
2022/09/14 10:08:02;;;;;;;4.83;4.23;;;23.20;1.00;;;;;;5079764;28;20435;-73
2022/09/14 10:10:34;;;;;;;10.00;4.50;;;23.10;1.00;;;;;;5085609;28;20794;-73
2022/09/14 10:13:02;;;;;;;4.10;3.70;;;23.30;1.00;;;;;;5081394;28;20409;-73
2022/09/14 10:15:38;;;;;;;10.20;4.10;;;23.30;1.00;;;;;;5086228;28;20492;-72
2022/09/14 10:18:13;;;;;;;5.00;3.90;;;23.10;1.00;;;;;;5080092;28;20411;-72
2022/09/14 10:20:53;;;;;;;4.97;3.33;;;23.10;1.00;;;;;;5091596;28;20908;-72
2022/09/14 10:23:19;;;;;;;4.90;3.70;;;23.20;1.00;;;;;;5079805;28;20422;-73
2022/09/14 10:25:50;;;;;;;5.70;4.10;;;23.30;1.00;;;;;;5081699;28;20429;-73
2022/09/14 10:28:27;;;;;;;5.97;4.00;;;23.30;1.00;;;;;;5086217;28;20287;-73
2022/09/14 10:31:10;;;;;;;3.70;3.40;;;23.30;1.00;;;;;;5087881;28;21009;-73
2022/09/14 10:33:37;;;;;;;5.73;3.37;;;23.40;1.00;;;;;;5076770;28;20426;-72
2022/09/14 10:36:24;;;;;;;3.20;2.90;;;23.20;1.00;;;;;;5080001;28;20415;-72
2022/09/14 10:39:14;;;;;;;3.60;3.30;;;23.10;1.00;;;;;;5081431;28;20487;-73
2022/09/14 10:41:53;;;;;;;8.13;3.60;;;23.10;1.00;;;;;;5084348;28;20443;-72
2022/09/14 10:44:50;;;;;;;13.53;4.10;;;23.10;1.00;;;;;;5080554;28;20445;-72
2022/09/14 10:47:20;;;;;;;4.43;4.07;;;22.90;1.00;;;;;;5078394;28;20469;-72
2022/09/14 10:53:18;;;;;;;7.23;4.50;;;22.50;1.00;;;;;;5075387;28;20496;-78
2022/09/14 10:56:00;;;;;;;6.87;4.30;;;22.40;1.00;;;;;;5077339;28;20842;-78
2022/09/14 10:58:59;;;;;;;8.33;5.33;;;22.40;1.00;;;;;;5087656;28;20456;-81
2022/09/14 11:02:03;;;;;;;7.90;5.40;;;22.60;1.00;;;;;;5086794;28;20774;-82
2022/09/14 11:05:06;;;;;;;7.27;4.40;;;22.90;1.00;;;;;;5083668;28;20412;-80
2022/09/14 11:07:38;;;;;;;6.27;5.67;;;23.00;1.00;;;;;;5085138;28;20435;-76
2022/09/14 11:10:19;;;;;;;6.80;5.70;;;23.00;1.00;;;;;;5087562;28;20436;-77
2022/09/14 11:13:10;;;;;;;6.37;5.03;;;23.10;1.00;;;;;;5075023;28;20438;-79
2022/09/14 11:16:01;;;;;;;7.20;4.90;;;23.20;1.00;;;;;;5074876;28;20403;-81
2022/09/14 11:18:51;;;;;;;5.50;4.67;;;23.40;1.00;;;;;;5084789;28;20470;-77
2022/09/14 11:21:42;;;;;;;6.27;5.67;;;23.40;1.00;;;;;;5090449;28;20461;-79
2022/09/14 11:24:23;;;;;;;7.63;5.30;;;23.50;1.00;;;;;;5082901;28;20441;-80
2022/09/14 11:27:22;;;;;;;6.20;5.60;;;23.60;1.00;;;;;;5094732;28;20506;-79
2022/09/14 11:30:08;;;;;;;8.73;4.90;;;23.50;1.00;;;;;;4996439;28;20420;-79
2022/09/14 11:32:43;;;;;;;7.80;5.40;;;23.10;1.00;;;;;;5012800;28;20451;-79
2022/09/14 11:35:16;;;;;;;6.40;5.50;;;23.10;1.00;;;;;;4996171;28;20455;-78
2022/09/14 11:37:54;;;;;;;6.70;5.00;;;22.80;1.00;;;;;;5012994;28;20455;-78
2022/09/14 11:40:27;;;;;;;6.27;5.67;;;22.80;1.00;;;;;;5011442;28;20924;-78
2022/09/14 11:43:08;;;;;;;9.03;5.00;;;22.70;1.00;;;;;;5012906;28;20407;-78
2022/09/14 11:45:51;;;;;;;6.63;5.17;;;22.70;1.00;;;;;;4996231;28;20420;-79
2022/09/14 11:48:39;;;;;;;6.40;5.37;;;22.80;1.00;;;;;;5012761;28;20969;-77
2022/09/14 11:51:28;;;;;;;9.03;5.60;;;22.90;1.00;;;;;;5002272;28;20409;-77
2022/09/14 11:54:30;;;;;;;5.60;5.00;;;23.10;1.00;;;;;;4996627;28;20436;-77
2022/09/14 11:57:02;;;;;;;8.63;5.00;;;23.30;1.00;;;;;;5011255;28;20429;-77
2022/09/14 11:59:49;;;;;;;7.27;5.10;;;23.30;1.00;;;;;;4991355;28;20466;-77
2022/09/14 12:02:24;;;;;;;5.10;4.60;;;23.50;1.00;;;;;;4998320;28;20513;-77
2022/09/14 12:05:05;;;;;;;4.43;4.00;;;23.60;1.00;;;;;;5009894;28;20436;-75
2022/09/14 12:07:46;;;;;;;4.67;4.23;;;23.70;1.00;;;;;;5064041;28;20430;-76
2022/09/14 12:10:17;;;;;;;5.20;4.70;;;23.80;1.00;;;;;;5079413;28;20442;-76
2022/09/14 12:12:46;;;;;;;6.53;3.90;;;24.00;1.00;;;;;;5079066;28;20402;-76
2022/09/14 12:15:39;;;;;;;4.83;4.30;;;24.10;1.00;;;;;;5082854;28;20429;-76
2022/09/14 12:18:05;;;;;;;6.00;4.37;;;24.20;1.00;;;;;;5076015;28;20956;-76
2022/09/14 12:20:43;;;;;;;12.90;4.90;;;24.40;1.00;;;;;;5074126;28;20388;-76
2022/09/14 12:23:24;;;;;;;9.43;4.47;;;24.50;1.00;;;;;;5093281;28;20179;-79
2022/09/14 12:26:09;;;;;;;5.50;4.27;;;24.50;1.00;;;;;;5079579;28;20431;-79
2022/09/14 12:29:20;;;;;;;7.50;4.57;;;24.80;1.00;;;;;;5093781;28;20430;-81
2022/09/14 12:32:01;;;;;;;4.27;3.80;;;24.60;1.00;;;;;;5011832;28;20771;-81
2022/09/14 12:34:32;;;;;;;8.73;4.80;;;24.90;1.00;;;;;;5024937;28;20426;-81
2022/09/14 12:37:29;;;;;;;5.13;4.27;;;25.10;1.00;;;;;;5024938;28;20913;-81
2022/09/14 12:40:47;;;;;;;7.30;3.93;;;25.40;1.00;;;;;;5011653;28;20539;-78
2022/09/14 12:43:36;;;;;;;6.30;4.80;;;25.30;1.00;;;;;;5011711;28;20423;-78
2022/09/14 12:46:10;;;;;;;6.63;5.07;;;25.20;1.00;;;;;;5013969;28;20452;-78
2022/09/14 12:48:48;;;;;;;6.40;4.67;;;24.90;1.00;;;;;;5014200;28;20427;-78
2022/09/14 12:51:20;;;;;;;5.50;4.87;;;24.80;1.00;;;;;;5031628;28;20520;-77
2022/09/14 12:53:58;;;;;;;6.70;5.30;;;24.50;1.00;;;;;;5016002;28;20423;-76
2022/09/14 12:56:33;;;;;;;6.87;4.90;;;24.30;1.00;;;;;;5018723;28;21112;-77
2022/09/14 12:59:27;;;;;;;11.40;5.60;;;24.20;1.00;;;;;;5019398;28;20480;-80
2022/09/14 13:02:42;;;;;;;10.53;5.53;;;24.10;1.00;;;;;;5017870;28;20422;-79
2022/09/14 13:05:16;;;;;;;6.97;5.70;;;24.00;1.00;;;;;;5022839;28;20435;-78
2022/09/14 13:07:54;;;;;;;6.20;4.80;;;24.00;1.00;;;;;;5020304;28;20500;-79
2022/09/14 13:10:36;;;;;;;9.20;5.23;;;24.10;1.00;;;;;;5073004;28;20469;-79
2022/09/14 13:13:36;;;;;;;8.20;5.20;;;24.20;1.00;;;;;;5080499;28;20438;-79
2022/09/14 13:16:29;;;;;;;6.10;5.07;;;24.40;1.00;;;;;;5077728;28;20426;-79
2022/09/14 13:19:01;;;;;;;9.20;5.40;;;24.50;1.00;;;;;;5077933;28;20539;-78
2022/09/14 13:21:27;;;;;;;5.60;5.00;;;24.70;1.00;;;;;;5079849;28;20406;-77
2022/09/14 13:23:54;;;;;;;7.00;5.00;;;24.80;1.00;;;;;;5078829;28;20436;-78
2022/09/14 13:26:55;;;;;;;8.70;5.33;;;24.90;1.00;;;;;;5074758;28;20427;-80
2022/09/14 13:29:30;;;;;;;7.03;5.70;;;24.90;1.00;;;;;;5086805;28;20420;-81
2022/09/14 13:32:19;;;;;;;6.43;5.73;;;24.80;1.00;;;;;;5085170;28;20833;-80
2022/09/14 13:34:46;;;;;;;9.73;5.63;;;24.70;1.00;;;;;;5073380;28;20449;-81
2022/09/14 13:37:20;;;;;;;7.00;6.10;;;24.60;1.00;;;;;;5074809;28;20444;-83
2022/09/14 13:40:06;;;;;;;8.10;6.00;;;24.50;1.00;;;;;;5076358;28;21012;-82
2022/09/14 13:42:33;;;;;;;9.10;6.63;;;24.40;1.00;;;;;;5073035;28;20424;-82
2022/09/14 13:45:00;;;;;;;11.13;6.73;;;24.30;1.00;;;;;;5085022;28;20442;-82
2022/09/14 13:47:42;;;;;;;9.30;6.33;;;24.10;1.00;;;;;;5092926;28;20418;-82
2022/09/14 13:50:25;;;;;;;10.33;6.27;;;24.20;1.00;;;;;;5079305;28;20492;-81
2022/09/14 13:53:29;;;;;;;10.03;5.97;;;24.20;1.00;;;;;;5081753;28;20787;-81
2022/09/14 13:55:54;;;;;;;17.20;7.17;;;24.10;1.00;;;;;;5083851;28;20426;-81
2022/09/14 13:58:22;;;;;;;8.13;6.17;;;24.10;1.00;;;;;;5076391;28;20452;-80
2022/09/14 14:01:38;;;;;;;15.67;7.00;;;24.10;1.00;;;;;;5082368;28;20181;-81
2022/09/14 14:04:34;;;;;;;18.03;7.73;;;24.10;1.00;;;;;;4991870;28;20432;-81
2022/09/14 14:07:31;;;;;;;10.57;6.67;;;23.90;1.00;;;;;;5014377;28;20429;-81
2022/09/14 14:10:38;;;;;;;14.40;6.63;;;23.80;1.00;;;;;;4998443;28;20500;-78
2022/09/14 14:13:06;;;;;;;15.10;7.60;;;23.60;1.00;;;;;;4935455;29;20528;-78
2022/09/14 14:15:42;;;;;;;11.97;7.70;;;23.60;1.00;;;;;;4924630;29;20837;-79
2022/09/14 14:18:42;;;;;;;11.83;7.60;;;23.50;1.00;;;;;;4936547;29;20439;-79
2022/09/14 14:21:38;;;;;;;15.93;6.90;;;23.50;1.00;;;;;;4937116;29;20585;-78
2022/09/14 14:27:43;;;;;;;15.90;7.80;;;23.30;1.00;;;;;;4930907;29;20466;-80
2022/09/14 14:30:20;;;;;;;11.63;7.10;;;23.20;1.00;;;;;;4936525;29;20496;-78
2022/09/14 14:33:00;;;;;;;11.43;7.90;;;23.20;1.00;;;;;;4933466;29;20447;-80
2022/09/14 14:35:30;;;;;;;11.63;7.50;;;23.10;1.00;;;;;;4917551;29;20410;-81
2022/09/14 14:38:24;;;;;;;14.30;7.53;;;23.10;1.00;;;;;;4929229;29;20445;-79
2022/09/14 14:41:07;;;;;;;16.23;7.20;;;23.10;1.00;;;;;;4987235;28;20428;-81
2022/09/14 14:44:17;;;;;;;18.37;8.10;;;23.00;1.00;;;;;;5033636;28;20405;-83
2022/09/14 14:46:44;;;;;;;19.17;8.90;;;23.00;1.00;;;;;;5049928;28;20507;-79
2022/09/14 14:49:24;;;;;;;11.43;7.90;;;22.90;1.00;;;;;;5078851;28;20416;-81
2022/09/14 14:51:50;;;;;;;17.63;9.10;;;22.80;1.00;;;;;;5084839;28;20440;-80
2022/09/14 14:54:36;;;;;;;18.70;8.43;;;22.70;1.00;;;;;;5084250;28;20416;-80
2022/09/14 14:57:18;;;;;;;16.73;9.63;;;22.70;1.00;;;;;;5079601;28;20220;-79
2022/09/14 14:59:44;;;;;;;22.27;9.40;;;22.60;1.00;;;;;;5077072;28;20544;-79
2022/09/14 15:02:18;;;;;;;13.63;9.20;;;22.60;1.00;;;;;;5077041;28;20492;-78
2022/09/14 15:05:12;;;;;;;18.27;10.30;;;22.50;1.00;;;;;;5081615;28;20904;-79
2022/09/14 15:07:42;;;;;;;24.83;10.90;;;22.40;1.00;;;;;;5092320;28;20416;-82
2022/09/14 15:10:19;;;;;;;19.30;9.00;;;22.40;1.00;;;;;;5092362;28;20388;-79
2022/09/14 15:12:48;;;;;;;15.80;8.77;;;22.40;1.00;;;;;;5081447;28;20388;-79
2022/09/14 15:15:25;;;;;;;16.67;9.60;;;22.30;1.00;;;;;;5083196;28;20465;-80
2022/09/14 15:17:52;;;;;;;20.97;10.20;;;22.30;1.00;;;;;;5078635;28;20416;-79
2022/09/14 15:20:18;;;;;;;16.93;10.83;;;22.30;1.00;;;;;;5074590;28;20961;-79